<?xml version="1.0" encoding="UTF-8" standalone="no" ?>
<gpx xmlns="http://www.topografix.com/GPX/1/1" xmlns:xsi="http://www.w3.org/2001/XMLSchema-instance" xsi:schemaLocation="http://www.topografix.com/GPX/1/1 http://www.topografix.com/GPX/1/1/gpx.xsd" version="1.1" creator="VisuGPX - https://www.visugpx.com">
  <metadata>
    <name>13787550-MN PUITS D'ENFER</name>
  </metadata>
  <trk>
    <name><![CDATA[13787550-MN PUITS D'ENFER]]></name>
    <trkseg>
      <trkpt lat="46.47224" lon="-1.74596">
        <ele>10</ele>
        <time>2021-10-05T05:09:45Z</time>
      </trkpt>
      <trkpt lat="46.47249" lon="-1.7459">
        <ele>13</ele>
        <time>2021-10-05T05:10:19Z</time>
      </trkpt>
      <trkpt lat="46.47272" lon="-1.74503">
        <ele>14</ele>
        <time>2021-10-05T05:11:44Z</time>
      </trkpt>
      <trkpt lat="46.47131" lon="-1.74214">
        <ele>13</ele>
        <time>2021-10-05T05:17:10Z</time>
      </trkpt>
      <trkpt lat="46.47199" lon="-1.74192">
        <ele>14</ele>
        <time>2021-10-05T05:18:43Z</time>
      </trkpt>
      <trkpt lat="46.47369" lon="-1.74172">
        <ele>18</ele>
        <time>2021-10-05T05:22:31Z</time>
      </trkpt>
      <trkpt lat="46.4738" lon="-1.74154">
        <ele>17</ele>
        <time>2021-10-05T05:22:53Z</time>
      </trkpt>
      <trkpt lat="46.47359" lon="-1.74118">
        <ele>17</ele>
        <time>2021-10-05T05:23:36Z</time>
      </trkpt>
      <trkpt lat="46.47321" lon="-1.73987">
        <ele>13</ele>
        <time>2021-10-05T05:25:47Z</time>
      </trkpt>
      <trkpt lat="46.47286" lon="-1.73888">
        <ele>14</ele>
        <time>2021-10-05T05:27:29Z</time>
      </trkpt>
      <trkpt lat="46.47155" lon="-1.73728">
        <ele>13</ele>
        <time>2021-10-05T05:31:17Z</time>
      </trkpt>
      <trkpt lat="46.47104" lon="-1.73663">
        <ele>11</ele>
        <time>2021-10-05T05:32:48Z</time>
      </trkpt>
      <trkpt lat="46.47048" lon="-1.73629">
        <ele>10</ele>
        <time>2021-10-05T05:34:09Z</time>
      </trkpt>
      <trkpt lat="46.47032" lon="-1.73597">
        <ele>10</ele>
        <time>2021-10-05T05:34:45Z</time>
      </trkpt>
      <trkpt lat="46.47071" lon="-1.73609">
        <ele>10</ele>
        <time>2021-10-05T05:35:38Z</time>
      </trkpt>
      <trkpt lat="46.47148" lon="-1.73537">
        <ele>16</ele>
        <time>2021-10-05T05:37:41Z</time>
      </trkpt>
      <trkpt lat="46.47135" lon="-1.73485">
        <ele>16</ele>
        <time>2021-10-05T05:38:32Z</time>
      </trkpt>
      <trkpt lat="46.47011" lon="-1.73267">
        <ele>16</ele>
        <time>2021-10-05T05:42:51Z</time>
      </trkpt>
      <trkpt lat="46.46905" lon="-1.73164">
        <ele>17</ele>
        <time>2021-10-05T05:45:42Z</time>
      </trkpt>
      <trkpt lat="46.46779" lon="-1.73116">
        <ele>18</ele>
        <time>2021-10-05T05:48:35Z</time>
      </trkpt>
      <trkpt lat="46.46768" lon="-1.73071">
        <ele>19</ele>
        <time>2021-10-05T05:49:19Z</time>
      </trkpt>
      <trkpt lat="46.46786" lon="-1.73048">
        <ele>20</ele>
        <time>2021-10-05T05:49:51Z</time>
      </trkpt>
      <trkpt lat="46.46865" lon="-1.73034">
        <ele>21</ele>
        <time>2021-10-05T05:51:38Z</time>
      </trkpt>
      <trkpt lat="46.46881" lon="-1.72961">
        <ele>21</ele>
        <time>2021-10-05T05:52:48Z</time>
      </trkpt>
      <trkpt lat="46.46949" lon="-1.7291">
        <ele>21</ele>
        <time>2021-10-05T05:54:30Z</time>
      </trkpt>
      <trkpt lat="46.46919" lon="-1.72796">
        <ele>21</ele>
        <time>2021-10-05T05:56:22Z</time>
      </trkpt>
      <trkpt lat="46.46906" lon="-1.72743">
        <ele>22</ele>
        <time>2021-10-05T05:57:14Z</time>
      </trkpt>
      <trkpt lat="46.4687" lon="-1.7258">
        <ele>26</ele>
        <time>2021-10-05T05:59:51Z</time>
      </trkpt>
      <trkpt lat="46.46772" lon="-1.72309">
        <ele>25</ele>
        <time>2021-10-05T06:04:33Z</time>
      </trkpt>
      <trkpt lat="46.46701" lon="-1.72116">
        <ele>25</ele>
        <time>2021-10-05T06:07:54Z</time>
      </trkpt>
      <trkpt lat="46.46635" lon="-1.72202">
        <ele>25</ele>
        <time>2021-10-05T06:09:52Z</time>
      </trkpt>
      <trkpt lat="46.46584" lon="-1.72216">
        <ele>25</ele>
        <time>2021-10-05T06:11:01Z</time>
      </trkpt>
      <trkpt lat="46.46506" lon="-1.72224">
        <ele>24</ele>
        <time>2021-10-05T06:12:46Z</time>
      </trkpt>
      <trkpt lat="46.46414" lon="-1.72286">
        <ele>22</ele>
        <time>2021-10-05T06:15:01Z</time>
      </trkpt>
      <trkpt lat="46.46394" lon="-1.72329">
        <ele>23</ele>
        <time>2021-10-05T06:15:49Z</time>
      </trkpt>
      <trkpt lat="46.46355" lon="-1.72352">
        <ele>26</ele>
        <time>2021-10-05T06:16:45Z</time>
      </trkpt>
      <trkpt lat="46.46341" lon="-1.72367">
        <ele>27</ele>
        <time>2021-10-05T06:17:08Z</time>
      </trkpt>
      <trkpt lat="46.46294" lon="-1.72117">
        <ele>25</ele>
        <time>2021-10-05T06:21:06Z</time>
      </trkpt>
      <trkpt lat="46.46237" lon="-1.71912">
        <ele>25</ele>
        <time>2021-10-05T06:24:30Z</time>
      </trkpt>
      <trkpt lat="46.46114" lon="-1.71795">
        <ele>24</ele>
        <time>2021-10-05T06:27:46Z</time>
      </trkpt>
    </trkseg>
  </trk>
</gpx>